createdAt,value
2023-02-15T00:01:12.681Z,34.03
2023-02-15T00:02:44.403Z,27.63
2023-02-15T00:04:19.405Z,35.25
2023-02-15T00:05:51.171Z,26.55
2023-02-15T00:07:23.011Z,33.00
2023-02-15T00:08:55.896Z,26.98
2023-02-15T00:10:27.526Z,32.42
2023-02-15T00:11:59.177Z,29.75
2023-02-15T00:13:30.821Z,28.20
2023-02-15T00:15:02.560Z,35.83
2023-02-15T00:16:35.002Z,30.02
2023-02-15T00:18:07.036Z,31.85
2023-02-15T00:19:38.740Z,29.48
2023-02-15T00:21:11.205Z,27.40
2023-02-15T00:22:42.943Z,30.67
2023-02-15T00:24:17.015Z,30.05
2023-02-15T00:25:48.755Z,28.35
2023-02-15T00:27:20.488Z,31.77
2023-02-15T00:28:52.804Z,31.95
2023-02-15T00:30:24.745Z,29.40
2023-02-15T00:31:56.700Z,26.52
2023-02-15T00:33:29.373Z,26.75
2023-02-15T00:35:01.082Z,24.90
2023-02-15T00:36:33.392Z,34.42
2023-02-15T00:38:05.207Z,26.75
2023-02-15T00:39:36.930Z,24.85
2023-02-15T00:41:09.794Z,32.67
2023-02-15T00:42:41.548Z,33.63
2023-02-15T00:44:14.462Z,32.00
2023-02-15T00:45:47.370Z,29.38
2023-02-15T00:47:19.070Z,28.90
2023-02-15T00:48:50.790Z,29.05
2023-02-15T00:50:23.887Z,29.83
2023-02-15T00:51:55.660Z,27.05
2023-02-15T00:53:28.267Z,27.58
2023-02-15T00:54:59.930Z,30.45
2023-02-15T00:56:31.587Z,27.35
2023-02-15T00:58:03.475Z,28.15
2023-02-15T00:59:35.130Z,29.48
2023-02-15T01:01:09.868Z,34.88
2023-02-15T01:02:41.489Z,34.95
2023-02-15T01:04:13.204Z,29.35
2023-02-15T01:05:44.959Z,28.50
2023-02-15T01:07:16.586Z,30.90
2023-02-15T01:08:48.642Z,33.10
2023-02-15T01:10:20.477Z,25.65
2023-02-15T01:11:52.149Z,27.33
2023-02-15T01:13:24.212Z,30.30
2023-02-15T01:14:55.830Z,27.02
2023-02-15T01:16:29.301Z,31.90
2023-02-15T01:18:00.976Z,30.85
2023-02-15T01:19:33.817Z,30.55
2023-02-15T01:21:20.432Z,27.92
2023-02-15T01:22:53.493Z,32.97
2023-02-15T01:24:25.102Z,27.67
2023-02-15T01:25:56.781Z,35.90
2023-02-15T01:27:31.525Z,33.17
2023-02-15T01:29:03.255Z,35.33
2023-02-15T01:30:35.006Z,30.88
2023-02-15T01:32:06.780Z,35.38
2023-02-15T01:33:39.044Z,33.65
2023-02-15T01:35:12.228Z,32.63
2023-02-15T01:36:43.910Z,32.70
2023-02-15T01:38:15.722Z,32.55
2023-02-15T01:39:47.403Z,29.48
2023-02-15T01:41:21.899Z,29.80
2023-02-15T01:42:54.945Z,30.02
2023-02-15T01:44:54.480Z,32.15
2023-02-15T01:46:35.151Z,35.90
2023-02-15T01:48:26.363Z,30.77
2023-02-15T01:50:29.936Z,28.13
2023-02-15T01:52:01.914Z,24.00
2023-02-15T01:53:40.436Z,28.27
2023-02-15T01:55:13.730Z,30.80
2023-02-15T01:56:45.964Z,29.92
2023-02-15T01:58:18.329Z,33.20
2023-02-15T01:59:55.843Z,28.30
2023-02-15T02:01:28.424Z,29.48
2023-02-15T02:03:04.387Z,29.92
2023-02-15T02:04:56.594Z,27.15
2023-02-15T02:06:29.187Z,27.60
2023-02-15T02:08:03.215Z,28.17
2023-02-15T02:09:37.910Z,31.63
2023-02-15T02:11:15.624Z,27.67
2023-02-15T02:12:55.610Z,24.88
2023-02-15T02:14:27.406Z,30.02
2023-02-15T02:16:43.599Z,28.48
2023-02-15T02:18:18.379Z,26.45
2023-02-15T02:20:14.769Z,27.48
2023-02-15T02:21:55.382Z,27.17
2023-02-15T02:23:33.068Z,26.85
2023-02-15T02:25:23.092Z,24.10
2023-02-15T02:27:14.897Z,29.77
2023-02-15T02:29:01.991Z,27.67
2023-02-15T02:31:07.322Z,28.63
2023-02-15T02:33:00.919Z,25.40
2023-02-15T02:34:46.794Z,27.63
2023-02-15T02:36:55.684Z,24.08
2023-02-15T02:38:39.108Z,27.45
2023-02-15T02:40:31.330Z,26.77
2023-02-15T02:42:07.297Z,29.23
2023-02-15T02:43:57.231Z,28.08
2023-02-15T02:45:45.882Z,32.22
2023-02-15T02:47:25.225Z,26.17
2023-02-15T02:48:58.041Z,22.38
2023-02-15T02:50:31.513Z,28.13
2023-02-15T02:52:06.723Z,28.48
2023-02-15T02:53:38.904Z,33.42
2023-02-15T02:55:31.407Z,26.75
2023-02-15T02:57:08.165Z,29.52
2023-02-15T02:58:46.590Z,30.60
2023-02-15T03:00:20.629Z,27.80
2023-02-15T03:01:56.946Z,29.33
2023-02-15T03:03:35.491Z,33.38
2023-02-15T03:05:14.536Z,28.90
2023-02-15T03:06:56.803Z,25.08
2023-02-15T03:08:37.246Z,26.40
2023-02-15T03:10:10.508Z,35.55
2023-02-15T03:11:45.111Z,26.90
2023-02-15T03:13:17.768Z,30.63
2023-02-15T03:14:54.292Z,25.60
2023-02-15T03:16:27.104Z,24.02
2023-02-15T03:18:03.912Z,29.42
2023-02-15T03:19:38.263Z,32.63
2023-02-15T03:21:22.986Z,23.17
2023-02-15T03:23:26.390Z,27.92
2023-02-15T03:25:16.066Z,28.10
2023-02-15T03:26:52.586Z,29.67
2023-02-15T03:28:31.088Z,29.88
2023-02-15T03:30:05.076Z,30.83
2023-02-15T03:31:45.102Z,29.77
2023-02-15T03:33:16.936Z,28.17
2023-02-15T03:34:48.852Z,31.65
2023-02-15T03:36:23.282Z,29.73
2023-02-15T03:38:01.254Z,22.77
2023-02-15T03:40:23.129Z,32.15
2023-02-15T03:42:09.916Z,25.52
2023-02-15T03:43:44.564Z,27.95
2023-02-15T03:45:22.718Z,31.08
2023-02-15T03:47:09.799Z,26.55
2023-02-15T03:48:46.710Z,31.48
2023-02-15T03:50:40.485Z,26.30
2023-02-15T03:52:14.969Z,28.85
2023-02-15T03:53:48.370Z,26.73
2023-02-15T03:55:20.000Z,25.27
2023-02-15T03:57:11.612Z,26.75
2023-02-15T03:59:01.591Z,27.85
2023-02-15T04:00:56.672Z,24.48
2023-02-15T04:02:34.997Z,29.58
2023-02-15T04:04:20.231Z,25.80
2023-02-15T04:05:52.084Z,28.33
2023-02-15T04:07:23.791Z,25.60
2023-02-15T04:09:13.935Z,31.08
2023-02-15T04:10:55.693Z,26.20
2023-02-15T04:12:27.436Z,30.92
2023-02-15T04:13:59.516Z,27.17
2023-02-15T04:15:57.256Z,31.52
2023-02-15T04:17:29.068Z,30.98
2023-02-15T04:19:19.192Z,40.58
2023-02-15T04:21:09.416Z,33.50
2023-02-15T04:22:59.701Z,34.15
2023-02-15T04:24:49.880Z,40.70
2023-02-15T04:26:21.504Z,42.22
2023-02-15T04:27:54.731Z,33.45
2023-02-15T04:29:27.863Z,35.13
2023-02-15T04:30:59.481Z,40.80
2023-02-15T04:32:31.139Z,32.78
2023-02-15T04:34:02.694Z,34.50
2023-02-15T04:35:34.624Z,33.75
2023-02-15T04:37:06.250Z,35.03
2023-02-15T04:38:37.865Z,38.53
2023-02-15T04:40:12.897Z,32.45
2023-02-15T04:41:45.458Z,33.53
2023-02-15T04:43:17.024Z,36.30
2023-02-15T04:44:48.642Z,37.80
2023-02-15T04:46:20.305Z,30.92
2023-02-15T04:47:51.966Z,35.75
2023-02-15T04:49:23.560Z,36.28
2023-02-15T04:50:55.095Z,31.45
2023-02-15T04:52:26.802Z,29.70
2023-02-15T04:53:58.460Z,31.83
2023-02-15T04:55:29.994Z,33.25
2023-02-15T04:57:01.599Z,32.10
2023-02-15T04:58:33.481Z,31.48
2023-02-15T05:00:05.533Z,28.85
2023-02-15T05:01:37.089Z,31.52
2023-02-15T05:03:08.688Z,32.60
2023-02-15T05:04:40.249Z,30.42
2023-02-15T05:06:11.795Z,33.95
2023-02-15T05:07:43.377Z,30.00
2023-02-15T05:09:16.206Z,32.05
2023-02-15T05:10:50.835Z,32.75
2023-02-15T05:12:22.417Z,34.42
2023-02-15T05:13:54.147Z,40.25
2023-02-15T05:15:25.782Z,31.02
2023-02-15T05:16:59.752Z,31.02
2023-02-15T05:18:31.593Z,34.17
2023-02-15T05:20:04.284Z,33.35
2023-02-15T05:21:35.943Z,30.23
2023-02-15T05:23:07.530Z,33.03
2023-02-15T05:24:57.450Z,34.95
2023-02-15T05:26:47.701Z,33.50
2023-02-15T05:28:22.177Z,41.17
2023-02-15T05:29:53.865Z,29.45
2023-02-15T05:31:25.964Z,31.23
2023-02-15T05:32:57.691Z,31.48
2023-02-15T05:34:29.287Z,29.23
2023-02-15T05:36:02.502Z,38.83
2023-02-15T05:37:34.414Z,35.30
2023-02-15T05:39:06.843Z,34.38
2023-02-15T05:40:38.484Z,35.53
2023-02-15T05:42:10.032Z,31.52
2023-02-15T05:43:41.939Z,43.22
2023-02-15T05:45:13.547Z,40.08
2023-02-15T05:46:45.129Z,38.13
2023-02-15T05:48:17.890Z,49.55
2023-02-15T05:49:49.513Z,41.88
2023-02-15T05:51:21.120Z,40.30
2023-02-15T05:52:53.054Z,41.75
2023-02-15T05:54:24.748Z,38.65
2023-02-15T05:56:00.523Z,36.42
2023-02-15T05:59:04.554Z,39.13
2023-02-15T06:00:38.048Z,45.80
2023-02-15T06:02:09.813Z,34.35
2023-02-15T06:03:42.028Z,50.75
2023-02-15T06:05:13.736Z,41.92
2023-02-15T06:06:45.336Z,38.70
2023-02-15T06:08:16.990Z,47.17
2023-02-15T06:09:48.578Z,34.38
2023-02-15T06:11:20.262Z,46.05
2023-02-15T06:12:51.919Z,40.65
2023-02-15T06:14:24.034Z,50.53
2023-02-15T06:15:55.642Z,51.58
2023-02-15T06:17:27.377Z,54.42
2023-02-15T06:19:00.322Z,47.90
2023-02-15T06:20:32.048Z,52.63
2023-02-15T06:22:03.785Z,44.22
2023-02-15T06:23:35.578Z,38.88
2023-02-15T06:25:10.753Z,37.35
2023-02-15T06:26:42.686Z,39.83
2023-02-15T06:28:14.564Z,39.85
2023-02-15T06:29:46.085Z,34.75
2023-02-15T06:31:17.767Z,34.40
2023-02-15T06:32:49.477Z,36.75
2023-02-15T06:34:21.120Z,35.60
2023-02-15T06:35:52.737Z,36.00
2023-02-15T06:37:24.467Z,40.47
2023-02-15T06:38:56.725Z,33.80
2023-02-15T06:40:28.317Z,32.65
2023-02-15T06:41:59.919Z,34.40
2023-02-15T06:43:31.529Z,33.97
2023-02-15T06:45:03.686Z,31.63
2023-02-15T06:46:35.996Z,27.15
2023-02-15T06:48:09.086Z,30.05
2023-02-15T06:49:40.813Z,32.78
2023-02-15T06:51:12.518Z,35.90
2023-02-15T06:52:44.283Z,31.45
2023-02-15T06:54:16.988Z,28.27
2023-02-15T06:55:48.597Z,32.95
2023-02-15T06:57:20.188Z,28.38
2023-02-15T06:58:53.571Z,29.88
2023-02-15T07:00:25.185Z,27.10
2023-02-15T07:01:56.810Z,28.45
2023-02-15T07:03:28.542Z,34.40
2023-02-15T07:05:00.434Z,31.90
2023-02-15T07:06:34.008Z,28.05
2023-02-15T07:08:05.564Z,27.30
2023-02-15T07:09:37.462Z,34.22
2023-02-15T07:11:27.681Z,37.05
2023-02-15T07:12:59.269Z,26.27
2023-02-15T07:14:30.904Z,34.47
2023-02-15T07:16:02.766Z,29.17
2023-02-15T07:17:36.234Z,29.10
2023-02-15T07:19:08.215Z,29.55
2023-02-15T07:20:42.514Z,29.00
2023-02-15T07:22:14.132Z,31.70
2023-02-15T07:23:46.141Z,33.72
2023-02-15T07:25:19.306Z,31.95
2023-02-15T07:26:50.933Z,30.25
2023-02-15T07:28:23.062Z,32.05
2023-02-15T07:29:54.829Z,34.67
2023-02-15T07:31:26.548Z,33.28
2023-02-15T07:33:18.301Z,31.58
2023-02-15T07:34:49.958Z,28.60
2023-02-15T07:36:21.629Z,30.23
2023-02-15T07:37:54.137Z,32.75
2023-02-15T07:39:25.715Z,33.40
2023-02-15T07:41:04.845Z,28.83
2023-02-15T07:42:36.543Z,29.95
2023-02-15T07:44:13.872Z,35.28
2023-02-15T07:45:45.523Z,32.05
2023-02-15T07:47:17.101Z,27.90
2023-02-15T07:48:50.046Z,28.70
2023-02-15T07:50:21.674Z,28.25
2023-02-15T07:51:53.268Z,29.02
2023-02-15T07:53:24.874Z,27.60
2023-02-15T07:54:56.481Z,20.38
2023-02-15T07:56:28.189Z,24.50
2023-02-15T07:57:59.819Z,25.02
2023-02-15T07:59:31.454Z,31.45
2023-02-15T08:01:05.820Z,25.85
2023-02-15T08:02:38.131Z,26.75
2023-02-15T08:04:11.961Z,27.13
2023-02-15T08:05:45.582Z,31.80
2023-02-15T08:07:17.292Z,35.50
2023-02-15T08:08:48.928Z,34.25
2023-02-15T08:10:40.460Z,27.17
2023-02-15T08:12:12.144Z,47.08
2023-02-15T08:13:54.833Z,33.45
2023-02-15T08:17:03.485Z,35.22
2023-02-15T08:18:35.408Z,31.33
2023-02-15T08:20:07.647Z,39.63
2023-02-15T08:21:42.039Z,33.10
2023-02-15T08:23:13.690Z,34.45
2023-02-15T08:24:45.417Z,36.00
2023-02-15T08:26:17.914Z,33.97
2023-02-15T08:27:50.556Z,31.50
2023-02-15T08:29:24.685Z,29.00
2023-02-15T08:30:56.362Z,28.38
2023-02-15T08:32:28.013Z,28.33
2023-02-15T08:34:00.101Z,33.33
2023-02-15T08:35:31.861Z,29.50
2023-02-15T08:37:03.607Z,30.02
2023-02-15T08:38:36.054Z,26.38
2023-02-15T08:40:08.567Z,29.10
2023-02-15T08:41:42.475Z,30.00
2023-02-15T08:43:14.114Z,27.92
2023-02-15T08:44:45.863Z,30.10
2023-02-15T08:46:18.532Z,28.25
2023-02-15T08:47:50.193Z,26.95
2023-02-15T08:49:22.730Z,26.10
2023-02-15T08:50:54.920Z,33.70
2023-02-15T08:52:26.595Z,25.55
2023-02-15T08:54:01.277Z,26.67
2023-02-15T08:55:33.005Z,29.02
2023-02-15T08:57:04.829Z,24.65
2023-02-15T08:58:37.397Z,31.13
2023-02-15T09:00:10.084Z,30.13
2023-02-15T09:01:41.930Z,27.67
2023-02-15T09:03:13.671Z,29.38
2023-02-15T09:04:45.318Z,29.55
2023-02-15T09:06:18.143Z,27.25
2023-02-15T09:07:49.867Z,30.45
2023-02-15T09:09:22.675Z,28.05
2023-02-15T09:10:54.925Z,32.42
2023-02-15T09:12:26.620Z,26.33
2023-02-15T09:14:06.711Z,24.77
2023-02-15T09:15:38.377Z,26.88
2023-02-15T09:17:10.008Z,28.27
2023-02-15T09:18:41.831Z,26.33
2023-02-15T09:20:13.556Z,22.70
2023-02-15T09:21:45.372Z,26.95
2023-02-15T09:23:26.802Z,25.70
2023-02-15T09:24:59.117Z,29.02
2023-02-15T09:26:32.682Z,30.08
2023-02-15T09:28:04.402Z,27.15
2023-02-15T09:29:36.049Z,29.35
2023-02-15T09:31:09.582Z,26.73
2023-02-15T09:32:41.331Z,30.10
2023-02-15T09:34:14.809Z,29.23
2023-02-15T09:35:46.480Z,29.88
2023-02-15T09:37:18.133Z,31.77
2023-02-15T09:38:57.291Z,26.98
2023-02-15T09:40:34.681Z,32.60
2023-02-15T09:42:24.988Z,25.85
2023-02-15T09:44:18.060Z,27.40
2023-02-15T09:46:04.067Z,29.75
2023-02-15T09:50:04.180Z,30.55
2023-02-15T09:51:54.003Z,28.10
2023-02-15T09:53:37.625Z,29.50
2023-02-15T09:55:36.903Z,36.42
2023-02-15T09:57:33.617Z,31.55
2023-02-15T09:59:28.301Z,28.75
2023-02-15T10:01:09.244Z,34.28
2023-02-15T10:03:06.176Z,27.13
2023-02-15T10:05:02.674Z,30.75
2023-02-15T10:06:45.251Z,29.05
2023-02-15T10:08:19.690Z,27.23
2023-02-15T10:09:53.967Z,27.65
2023-02-15T10:11:54.345Z,23.67
2023-02-15T10:13:42.680Z,27.40
2023-02-15T10:15:33.253Z,26.60
2023-02-15T10:17:19.570Z,25.60
2023-02-15T10:19:18.070Z,30.40
2023-02-15T10:21:25.135Z,25.80
2023-02-15T10:23:15.197Z,22.67
2023-02-15T10:25:19.132Z,25.08
2023-02-15T10:26:50.894Z,32.08
2023-02-15T10:28:41.063Z,28.17
2023-02-15T10:30:15.869Z,26.83
2023-02-15T10:31:49.923Z,25.80
2023-02-15T10:33:41.410Z,33.25
2023-02-15T10:35:37.172Z,30.88
2023-02-15T10:37:33.379Z,27.42
2023-02-15T10:39:29.331Z,24.17
2023-02-15T10:41:01.338Z,23.33
2023-02-15T10:42:55.061Z,22.45
2023-02-15T10:44:41.638Z,22.85
2023-02-15T10:46:25.162Z,27.85
2023-02-15T10:48:22.932Z,22.20
2023-02-15T10:50:18.041Z,23.33
2023-02-15T10:52:31.584Z,18.83
2023-02-15T10:54:15.121Z,21.42
2023-02-15T10:56:08.410Z,19.02
2023-02-15T10:57:52.191Z,19.13
2023-02-15T10:59:35.590Z,19.95
2023-02-15T11:01:36.824Z,18.83
2023-02-15T11:03:27.156Z,15.90
2023-02-15T11:05:04.049Z,14.02
2023-02-15T11:06:41.986Z,14.82
2023-02-15T11:08:14.121Z,17.38
2023-02-15T11:09:51.924Z,15.73
2023-02-15T11:11:33.197Z,20.75
2023-02-15T11:13:16.558Z,13.65
2023-02-15T11:14:56.511Z,15.15
2023-02-15T11:16:37.197Z,15.55
2023-02-15T11:18:37.125Z,13.50
2023-02-15T11:20:22.937Z,15.25
2023-02-15T11:22:00.121Z,23.27
2023-02-15T11:23:36.426Z,37.92
2023-02-15T11:25:20.856Z,57.15
2023-02-15T11:27:06.791Z,44.80
2023-02-15T11:28:45.988Z,28.30
2023-02-15T11:30:23.393Z,25.65
2023-02-15T11:31:58.682Z,26.98
2023-02-15T11:33:37.259Z,23.15
2023-02-15T11:35:24.597Z,28.15
2023-02-15T11:37:02.604Z,25.80
2023-02-15T11:38:35.531Z,22.13
2023-02-15T11:40:36.424Z,44.75
2023-02-15T11:42:15.084Z,25.15
2023-02-15T11:44:07.876Z,20.38
2023-02-15T11:45:42.845Z,25.55
2023-02-15T11:47:15.308Z,18.77
2023-02-15T11:48:46.947Z,22.00
2023-02-15T11:50:23.811Z,19.42
2023-02-15T11:51:57.864Z,18.77
2023-02-15T11:53:34.119Z,19.65
2023-02-15T11:55:15.498Z,19.02
2023-02-15T11:56:47.224Z,25.77
2023-02-15T11:58:30.805Z,18.15
2023-02-15T12:00:28.847Z,20.13
2023-02-15T12:02:00.869Z,19.10
2023-02-15T12:03:46.595Z,17.90
2023-02-15T12:05:23.146Z,20.60
2023-02-15T12:07:26.765Z,20.58
2023-02-15T12:09:14.222Z,18.02
2023-02-15T12:11:01.768Z,26.60
2023-02-15T12:12:37.127Z,21.67
2023-02-15T12:14:12.784Z,26.15
2023-02-15T12:15:49.145Z,20.17
2023-02-15T12:17:38.916Z,18.73
2023-02-15T12:19:33.810Z,20.00
2023-02-15T12:21:16.803Z,22.75
2023-02-15T12:23:03.995Z,19.27
2023-02-15T12:24:48.776Z,18.60
2023-02-15T12:26:36.067Z,17.85
2023-02-15T12:28:32.081Z,19.55
2023-02-15T12:30:31.302Z,19.73
2023-02-15T12:32:05.084Z,24.63
2023-02-15T12:33:46.839Z,17.33
2023-02-15T12:35:27.075Z,17.58
2023-02-15T12:37:03.214Z,15.35
2023-02-15T12:38:35.359Z,18.67
2023-02-15T12:40:20.930Z,17.75
2023-02-15T12:41:55.524Z,16.25
2023-02-15T12:43:32.030Z,16.02
2023-02-15T12:45:22.103Z,16.08
2023-02-15T12:47:29.055Z,20.20
2023-02-15T12:49:20.982Z,14.60
2023-02-15T12:50:54.760Z,16.80
2023-02-15T12:52:26.902Z,15.75
2023-02-15T12:54:02.007Z,17.17
2023-02-15T12:55:33.823Z,22.90
2023-02-15T12:57:15.047Z,14.30
2023-02-15T12:58:47.094Z,14.30
2023-02-15T13:00:22.108Z,17.77
2023-02-15T13:01:57.452Z,19.67
2023-02-15T13:03:29.566Z,15.35
2023-02-15T13:05:28.453Z,15.38
2023-02-15T13:07:03.810Z,14.65
2023-02-15T13:08:47.121Z,16.67
2023-02-15T13:10:31.208Z,16.17
2023-02-15T13:12:16.773Z,18.65
2023-02-15T13:13:55.032Z,15.25
2023-02-15T13:15:31.702Z,16.55
2023-02-15T13:17:08.696Z,20.13
2023-02-15T13:18:51.461Z,16.52
2023-02-15T13:20:28.285Z,16.55
2023-02-15T13:22:03.828Z,18.67
2023-02-15T13:23:36.501Z,18.48
2023-02-15T13:25:41.205Z,17.52
2023-02-15T13:27:19.802Z,17.08
2023-02-15T13:28:56.162Z,20.15
2023-02-15T13:30:33.748Z,19.27
2023-02-15T13:32:23.488Z,18.80
2023-02-15T13:34:04.329Z,17.00
2023-02-15T13:35:47.736Z,17.55
2023-02-15T13:37:48.304Z,13.32
2023-02-15T13:39:40.484Z,12.45
2023-02-15T13:41:21.670Z,15.98
2023-02-15T13:43:02.364Z,11.18
2023-02-15T13:44:43.258Z,17.10
2023-02-15T13:46:29.815Z,11.32
2023-02-15T13:48:13.341Z,12.60
2023-02-15T13:50:10.824Z,11.85
2023-02-15T13:51:42.506Z,15.63
2023-02-15T13:53:44.395Z,16.45
2023-02-15T13:55:21.792Z,21.25
2023-02-15T13:57:24.578Z,20.95
2023-02-15T13:59:18.872Z,14.38
2023-02-15T14:01:09.960Z,18.92
2023-02-15T14:03:30.408Z,18.58
2023-02-15T14:05:22.662Z,19.80
2023-02-15T14:07:19.503Z,17.13
2023-02-15T14:09:09.386Z,20.30
2023-02-15T14:10:41.179Z,23.17
2023-02-15T14:12:37.426Z,21.35
2023-02-15T14:14:30.808Z,18.90
2023-02-15T14:16:15.811Z,17.98
2023-02-15T14:18:06.346Z,19.95
2023-02-15T14:19:51.072Z,17.48
2023-02-15T14:21:31.596Z,22.13
2023-02-15T14:23:12.532Z,16.77
2023-02-15T14:25:00.769Z,20.42
2023-02-15T14:26:44.306Z,25.75
2023-02-15T14:28:31.067Z,20.02
2023-02-15T14:30:28.000Z,17.98
2023-02-15T14:32:09.106Z,23.02
2023-02-15T14:33:48.124Z,21.63
2023-02-15T14:35:25.154Z,20.63
2023-02-15T14:36:58.866Z,19.23
2023-02-15T14:38:47.969Z,18.95
2023-02-15T14:40:53.673Z,20.83
2023-02-15T14:42:36.073Z,16.60
2023-02-15T14:44:36.679Z,18.50
2023-02-15T14:46:48.991Z,24.98
2023-02-15T14:48:33.316Z,18.88
2023-02-15T14:50:45.347Z,20.83
2023-02-15T14:52:17.093Z,18.23
2023-02-15T14:53:48.805Z,15.38
2023-02-15T14:55:37.648Z,19.38
2023-02-15T14:57:09.485Z,19.35
2023-02-15T14:58:57.830Z,19.25
2023-02-15T15:00:39.113Z,21.27
2023-02-15T15:02:18.971Z,19.00
2023-02-15T15:03:54.460Z,18.77
2023-02-15T15:05:35.276Z,19.40
2023-02-15T15:07:13.187Z,25.35
2023-02-15T15:08:44.991Z,18.42
2023-02-15T15:10:20.859Z,23.25
2023-02-15T15:13:31.296Z,20.48
2023-02-15T15:15:04.965Z,17.45
2023-02-15T15:16:36.717Z,19.27
2023-02-15T15:18:09.690Z,18.95
2023-02-15T15:19:59.675Z,23.02
2023-02-15T15:21:49.655Z,26.55
2023-02-15T15:23:21.270Z,20.88
2023-02-15T15:25:05.042Z,18.83
2023-02-15T15:26:41.764Z,22.73
2023-02-15T15:28:35.361Z,21.08
2023-02-15T15:30:15.803Z,20.00
2023-02-15T15:31:56.615Z,18.80
2023-02-15T15:34:19.215Z,22.85
2023-02-15T15:36:36.152Z,26.35
2023-02-15T15:38:12.822Z,22.45
2023-02-15T15:40:06.109Z,16.77
2023-02-15T15:41:58.852Z,17.42
2023-02-15T15:44:08.070Z,20.17
2023-02-15T15:45:42.558Z,22.40
2023-02-15T15:47:27.644Z,18.33
2023-02-15T15:49:13.409Z,16.65
2023-02-15T15:50:45.062Z,20.10
2023-02-15T15:52:19.534Z,21.02
2023-02-15T15:53:54.368Z,18.58
2023-02-15T15:55:29.942Z,17.45
2023-02-15T15:57:04.830Z,16.58
2023-02-15T15:58:36.640Z,17.95
2023-02-15T16:00:46.030Z,14.38
2023-02-15T16:02:18.695Z,16.42
2023-02-15T16:03:52.340Z,13.77
2023-02-15T16:05:24.332Z,20.92
2023-02-15T16:06:56.849Z,13.32
2023-02-15T16:08:37.456Z,13.55
2023-02-15T16:10:20.981Z,16.00
2023-02-15T16:11:55.974Z,16.88
2023-02-15T16:13:27.981Z,17.52
2023-02-15T16:15:05.916Z,14.90
2023-02-15T16:16:37.849Z,16.05
2023-02-15T16:18:17.170Z,15.50
2023-02-15T16:19:49.722Z,13.18
2023-02-15T16:21:26.546Z,15.32
2023-02-15T16:23:07.176Z,17.40
2023-02-15T16:24:53.337Z,16.63
2023-02-15T16:26:43.646Z,16.10
2023-02-15T16:28:15.452Z,18.58
2023-02-15T16:29:47.176Z,14.38
2023-02-15T16:31:20.348Z,17.65
2023-02-15T16:33:03.953Z,16.92
2023-02-15T16:34:35.682Z,17.75
2023-02-15T16:36:12.524Z,18.40
2023-02-15T16:37:45.015Z,18.50
2023-02-15T16:39:21.330Z,14.45
2023-02-15T16:40:57.012Z,14.88
2023-02-15T16:42:28.726Z,17.20
2023-02-15T16:44:07.512Z,18.15
2023-02-15T16:45:39.831Z,18.95
2023-02-15T16:47:34.825Z,17.85
2023-02-15T16:50:54.169Z,16.08
2023-02-15T16:52:27.672Z,18.48
2023-02-15T16:54:07.250Z,13.73
2023-02-15T16:55:42.982Z,14.20
2023-02-15T16:57:21.809Z,17.83
2023-02-15T16:58:55.996Z,15.93
2023-02-15T17:00:31.933Z,18.88
2023-02-15T17:03:41.409Z,14.30
2023-02-15T17:05:13.044Z,15.32
2023-02-15T17:06:59.612Z,17.77
2023-02-15T17:08:34.122Z,19.20
2023-02-15T17:10:30.361Z,21.17
2023-02-15T17:12:03.251Z,19.85
2023-02-15T17:13:35.482Z,16.08
2023-02-15T17:15:35.262Z,14.15
2023-02-15T17:17:15.557Z,12.70
2023-02-15T17:18:47.555Z,13.98
2023-02-15T17:20:22.168Z,19.00
2023-02-15T17:21:57.374Z,15.55
2023-02-15T17:23:33.777Z,19.70
2023-02-15T17:25:05.988Z,17.08
2023-02-15T17:26:38.714Z,16.33
2023-02-15T17:28:19.950Z,19.27
2023-02-15T17:30:00.226Z,20.25
2023-02-15T17:31:34.246Z,24.58
2023-02-15T17:33:21.181Z,24.75
2023-02-15T17:35:09.124Z,22.20
2023-02-15T17:36:58.147Z,28.77
2023-02-15T17:38:29.931Z,24.00
2023-02-15T17:40:06.544Z,24.25
2023-02-15T17:41:38.371Z,22.83
2023-02-15T17:43:10.003Z,26.27
2023-02-15T17:44:41.588Z,22.23
2023-02-15T17:46:13.691Z,30.05
2023-02-15T17:47:48.140Z,25.38
2023-02-15T17:49:29.367Z,25.08
2023-02-15T17:51:04.096Z,22.35
2023-02-15T17:52:38.797Z,23.60
2023-02-15T17:54:28.807Z,26.98
2023-02-15T17:56:00.468Z,25.50
2023-02-15T17:57:32.536Z,29.40
2023-02-15T17:59:07.732Z,34.75
2023-02-15T18:01:02.772Z,31.98
2023-02-15T18:02:54.508Z,31.30
2023-02-15T18:04:44.801Z,23.80
2023-02-15T18:06:35.156Z,28.23
2023-02-15T18:08:37.154Z,25.45
2023-02-15T18:10:37.199Z,31.30
2023-02-15T18:12:30.654Z,26.13
2023-02-15T18:14:02.490Z,31.48
2023-02-15T18:15:35.075Z,25.88
2023-02-15T18:17:12.089Z,30.45
2023-02-15T18:18:45.634Z,26.08
2023-02-15T18:20:24.344Z,29.45
2023-02-15T18:21:57.779Z,24.85
2023-02-15T18:23:29.462Z,25.88
2023-02-15T18:25:01.295Z,27.75
2023-02-15T18:26:33.062Z,24.65
2023-02-15T18:28:05.165Z,27.75
2023-02-15T18:29:36.795Z,24.13
2023-02-15T18:31:08.656Z,21.90
2023-02-15T18:32:41.504Z,23.10
2023-02-15T18:34:22.815Z,26.73
2023-02-15T18:35:54.432Z,25.27
2023-02-15T18:37:31.240Z,27.45
2023-02-15T18:39:08.490Z,22.42
2023-02-15T18:40:40.755Z,22.25
2023-02-15T18:42:34.288Z,23.42
2023-02-15T18:44:11.764Z,24.00
2023-02-15T18:45:43.509Z,31.83
2023-02-15T18:47:15.352Z,24.60
2023-02-15T18:48:47.256Z,26.95
2023-02-15T18:50:20.721Z,23.67
2023-02-15T18:51:53.385Z,28.08
2023-02-15T18:53:25.230Z,30.15
2023-02-15T18:55:02.541Z,26.83
2023-02-15T18:56:34.266Z,25.42
2023-02-15T18:58:06.030Z,24.00
2023-02-15T18:59:37.654Z,26.65
2023-02-15T19:01:17.037Z,25.05
2023-02-15T19:02:48.978Z,25.65
2023-02-15T19:04:20.753Z,25.40
2023-02-15T19:05:52.568Z,24.08
2023-02-15T19:07:29.892Z,27.73
2023-02-15T19:09:01.964Z,25.85
2023-02-15T19:10:34.322Z,25.02
2023-02-15T19:12:13.508Z,28.60
2023-02-15T19:13:48.980Z,26.48
2023-02-15T19:15:24.352Z,32.20
2023-02-15T19:16:57.642Z,25.92
2023-02-15T19:18:29.445Z,25.23
2023-02-15T19:20:01.263Z,25.13
2023-02-15T19:21:33.655Z,27.17
2023-02-15T19:23:09.587Z,25.75
2023-02-15T19:24:44.658Z,28.55
2023-02-15T19:26:16.546Z,22.05
2023-02-15T19:27:48.817Z,21.67
2023-02-15T19:29:27.741Z,27.90
2023-02-15T19:30:59.827Z,23.23
2023-02-15T19:32:31.786Z,25.92
2023-02-15T19:34:14.401Z,22.73
2023-02-15T19:35:54.331Z,28.80
2023-02-15T19:37:30.855Z,33.72
2023-02-15T19:39:02.736Z,34.70
2023-02-15T19:40:35.992Z,29.73
2023-02-15T19:42:14.654Z,52.20
2023-02-15T19:43:53.433Z,41.58
2023-02-15T19:45:27.642Z,41.53
2023-02-15T19:46:59.493Z,33.58
2023-02-15T19:48:31.312Z,36.00
2023-02-15T19:50:04.357Z,32.90
2023-02-15T19:51:36.717Z,28.42
2023-02-15T19:53:22.690Z,25.42
2023-02-15T19:54:55.146Z,45.08
2023-02-15T19:56:28.067Z,38.38
2023-02-15T19:58:01.520Z,31.17
2023-02-15T19:59:36.915Z,29.38
2023-02-15T20:01:09.512Z,33.38
2023-02-15T20:02:41.345Z,33.45
2023-02-15T20:04:14.233Z,28.60
2023-02-15T20:05:47.116Z,34.08
2023-02-15T20:07:37.170Z,30.02
2023-02-15T20:09:28.926Z,27.00
2023-02-15T20:11:01.013Z,29.10
2023-02-15T20:12:33.060Z,26.25
2023-02-15T20:14:10.241Z,33.15
2023-02-15T20:15:42.621Z,25.08
2023-02-15T20:17:14.436Z,27.27
2023-02-15T20:18:46.696Z,23.13
2023-02-15T20:20:19.004Z,21.17
2023-02-15T20:21:54.633Z,28.45
2023-02-15T20:23:31.473Z,27.40
2023-02-15T20:25:03.595Z,25.73
2023-02-15T20:26:35.640Z,29.25
2023-02-15T20:28:15.549Z,31.17
2023-02-15T20:29:47.810Z,28.08
2023-02-15T20:31:20.643Z,25.58
2023-02-15T20:32:52.635Z,30.60
2023-02-15T20:34:24.497Z,21.13
2023-02-15T20:35:56.381Z,27.45
2023-02-15T20:37:32.994Z,24.50
2023-02-15T20:39:15.570Z,24.23
2023-02-15T20:41:07.521Z,27.40
2023-02-15T20:42:39.186Z,23.67
2023-02-15T20:44:43.425Z,22.20
2023-02-15T20:46:15.117Z,34.95
2023-02-15T20:47:50.842Z,32.97
2023-02-15T20:49:27.151Z,36.05
2023-02-15T20:50:59.004Z,26.58
2023-02-15T20:52:31.114Z,25.60
2023-02-15T20:54:12.639Z,23.10
2023-02-15T20:55:44.579Z,20.95
2023-02-15T20:57:17.024Z,31.00
2023-02-15T20:58:49.434Z,23.90
2023-02-15T21:00:24.116Z,24.65
2023-02-15T21:02:00.382Z,19.50
2023-02-15T21:03:32.200Z,21.13
2023-02-15T21:05:14.776Z,23.50
2023-02-15T21:08:21.608Z,22.50
2023-02-15T21:09:54.407Z,26.90
2023-02-15T21:11:27.638Z,23.55
2023-02-15T21:13:01.135Z,29.00
2023-02-15T21:14:34.473Z,27.23
2023-02-15T21:16:07.393Z,29.80
2023-02-15T21:17:39.117Z,28.58